sensor_id;sensor_type;location;lat;lon;timestamp;pressure;altitude;pressure_sealevel;temperature;humidity
78142;BME280;67393;52.620;13.482;2023-12-28T00:01:23;100656.69;;;4.35;100.00
78142;BME280;67393;52.620;13.482;2023-12-28T00:03:49;100651.47;;;4.25;100.00
78142;BME280;67393;52.620;13.482;2023-12-28T00:06:16;100637.44;;;4.23;100.00
78142;BME280;67393;52.620;13.482;2023-12-28T00:08:46;100658.50;;;4.20;100.00
78142;BME280;67393;52.620;13.482;2023-12-28T00:11:25;100647.94;;;4.29;100.00
78142;BME280;67393;52.620;13.482;2023-12-28T00:13:51;100653.19;;;4.32;100.00
78142;BME280;67393;52.620;13.482;2023-12-28T00:16:18;100633.91;;;4.33;100.00
78142;BME280;67393;52.620;13.482;2023-12-28T00:18:44;100617.31;;;4.31;100.00
78142;BME280;67393;52.620;13.482;2023-12-28T00:21:11;100629.53;;;4.36;100.00
78142;BME280;67393;52.620;13.482;2023-12-28T00:23:37;100622.47;;;4.48;100.00
78142;BME280;67393;52.620;13.482;2023-12-28T00:26:04;100609.38;;;4.43;100.00
78142;BME280;67393;52.620;13.482;2023-12-28T00:28:30;100597.13;;;4.39;100.00
78142;BME280;67393;52.620;13.482;2023-12-28T00:30:56;100599.75;;;4.39;100.00
78142;BME280;67393;52.620;13.482;2023-12-28T00:33:23;100595.38;;;4.33;100.00
78142;BME280;67393;52.620;13.482;2023-12-28T00:35:49;100598.88;;;4.40;100.00
78142;BME280;67393;52.620;13.482;2023-12-28T00:38:16;100595.28;;;4.52;100.00
78142;BME280;67393;52.620;13.482;2023-12-28T00:40:42;100587.41;;;4.53;100.00
78142;BME280;67393;52.620;13.482;2023-12-28T00:43:08;100591.81;;;4.50;100.00
78142;BME280;67393;52.620;13.482;2023-12-28T00:45:35;100600.53;;;4.55;100.00
78142;BME280;67393;52.620;13.482;2023-12-28T00:48:01;100599.72;;;4.50;100.00
78142;BME280;67393;52.620;13.482;2023-12-28T00:50:28;100593.50;;;4.60;100.00
78142;BME280;67393;52.620;13.482;2023-12-28T00:52:54;100594.34;;;4.65;100.00
78142;BME280;67393;52.620;13.482;2023-12-28T00:55:21;100591.66;;;4.74;100.00
78142;BME280;67393;52.620;13.482;2023-12-28T00:57:47;100599.53;;;4.73;100.00
78142;BME280;67393;52.620;13.482;2023-12-28T01:00:14;100604.81;;;4.73;100.00
78142;BME280;67393;52.620;13.482;2023-12-28T01:02:40;100613.53;;;4.79;100.00
78142;BME280;67393;52.620;13.482;2023-12-28T01:05:07;100622.28;;;4.83;100.00
78142;BME280;67393;52.620;13.482;2023-12-28T01:07:33;100616.16;;;4.81;100.00
78142;BME280;67393;52.620;13.482;2023-12-28T01:10:00;100603.00;;;4.82;100.00
78142;BME280;67393;52.620;13.482;2023-12-28T01:12:26;100596.03;;;4.78;100.00
78142;BME280;67393;52.620;13.482;2023-12-28T01:14:52;100603.06;;;4.73;100.00
78142;BME280;67393;52.620;13.482;2023-12-28T01:17:19;100617.09;;;4.74;100.00
78142;BME280;67393;52.620;13.482;2023-12-28T01:19:45;100608.38;;;4.65;100.00
78142;BME280;67393;52.620;13.482;2023-12-28T01:22:12;100608.38;;;4.62;100.00
78142;BME280;67393;52.620;13.482;2023-12-28T01:24:38;100609.28;;;4.58;100.00
78142;BME280;67393;52.620;13.482;2023-12-28T01:27:05;100604.06;;;4.54;100.00
78142;BME280;67393;52.620;13.482;2023-12-28T01:29:31;100606.66;;;4.55;100.00
78142;BME280;67393;52.620;13.482;2023-12-28T01:31:57;100605.78;;;4.56;100.00
78142;BME280;67393;52.620;13.482;2023-12-28T01:34:24;100609.34;;;4.46;100.00
78142;BME280;67393;52.620;13.482;2023-12-28T01:36:50;100607.59;;;4.44;100.00
78142;BME280;67393;52.620;13.482;2023-12-28T01:39:17;100601.53;;;4.35;100.00
78142;BME280;67393;52.620;13.482;2023-12-28T01:41:44;100595.41;;;4.32;100.00
78142;BME280;67393;52.620;13.482;2023-12-28T01:44:10;100584.94;;;4.18;100.00
78142;BME280;67393;52.620;13.482;2023-12-28T01:46:36;100573.59;;;4.13;100.00
78142;BME280;67393;52.620;13.482;2023-12-28T01:49:04;100573.66;;;4.04;100.00
78142;BME280;67393;52.620;13.482;2023-12-28T01:51:31;100576.25;;;4.08;100.00
78142;BME280;67393;52.620;13.482;2023-12-28T01:53:58;100549.09;;;4.15;100.00
78142;BME280;67393;52.620;13.482;2023-12-28T01:56:25;100544.69;;;4.14;100.00
78142;BME280;67393;52.620;13.482;2023-12-28T01:58:53;100546.41;;;4.22;100.00
78142;BME280;67393;52.620;13.482;2023-12-28T02:01:20;100529.81;;;4.20;100.00
78142;BME280;67393;52.620;13.482;2023-12-28T02:03:46;100520.19;;;4.15;100.00
78142;BME280;67393;52.620;13.482;2023-12-28T02:06:13;100507.03;;;4.19;100.00
78142;BME280;67393;52.620;13.482;2023-12-28T02:08:40;100488.69;;;4.15;100.00
78142;BME280;67393;52.620;13.482;2023-12-28T02:11:07;100500.88;;;4.27;100.00
78142;BME280;67393;52.620;13.482;2023-12-28T02:13:33;100533.19;;;4.37;100.00
78142;BME280;67393;52.620;13.482;2023-12-28T02:16:30;100546.22;;;4.55;100.00
78142;BME280;67393;52.620;13.482;2023-12-28T02:19:00;100572.41;;;4.71;100.00
78142;BME280;67393;52.620;13.482;2023-12-28T02:21:31;100576.72;;;4.81;100.00
78142;BME280;67393;52.620;13.482;2023-12-28T02:23:57;100557.34;;;4.94;100.00
78142;BME280;67393;52.620;13.482;2023-12-28T02:26:24;100586.97;;;5.19;100.00
78142;BME280;67393;52.620;13.482;2023-12-28T02:28:50;100574.59;;;5.29;100.00
78142;BME280;67393;52.620;13.482;2023-12-28T02:31:26;100583.28;;;5.37;100.00
78142;BME280;67393;52.620;13.482;2023-12-28T02:33:58;100583.16;;;5.51;99.79
78142;BME280;67393;52.620;13.482;2023-12-28T02:36:27;100570.66;;;5.73;96.14
78142;BME280;67393;52.620;13.482;2023-12-28T02:38:56;100563.47;;;5.87;94.66
78142;BME280;67393;52.620;13.482;2023-12-28T02:41:25;100551.97;;;5.97;92.21
78142;BME280;67393;52.620;13.482;2023-12-28T02:43:52;100548.31;;;6.09;91.45
78142;BME280;67393;52.620;13.482;2023-12-28T02:46:18;100549.06;;;6.19;89.62
78142;BME280;67393;52.620;13.482;2023-12-28T02:48:45;100549.00;;;6.25;88.52
78142;BME280;67393;52.620;13.482;2023-12-28T02:51:11;100549.66;;;6.41;88.45
78142;BME280;67393;52.620;13.482;2023-12-28T02:53:37;100547.78;;;6.49;86.78
78142;BME280;67393;52.620;13.482;2023-12-28T02:56:04;100556.47;;;6.55;85.60
78142;BME280;67393;52.620;13.482;2023-12-28T02:58:31;100564.19;;;6.68;83.85
78142;BME280;67393;52.620;13.482;2023-12-28T03:00:57;100559.63;;;6.79;81.85
78142;BME280;67393;52.620;13.482;2023-12-28T03:03:23;100542.75;;;6.91;80.51
78142;BME280;67393;52.620;13.482;2023-12-28T03:05:50;100546.03;;;7.05;78.92
78142;BME280;67393;52.620;13.482;2023-12-28T03:08:16;100545.84;;;7.19;78.12
78142;BME280;67393;52.620;13.482;2023-12-28T03:10:43;100545.78;;;7.20;77.80
78142;BME280;67393;52.620;13.482;2023-12-28T03:13:09;100541.25;;;7.28;77.63
78142;BME280;67393;52.620;13.482;2023-12-28T03:15:35;100545.63;;;7.31;77.28
78142;BME280;67393;52.620;13.482;2023-12-28T03:18:02;100535.88;;;7.34;76.92
78142;BME280;67393;52.620;13.482;2023-12-28T03:20:29;100526.31;;;7.27;78.08
78142;BME280;67393;52.620;13.482;2023-12-28T03:22:56;100530.94;;;7.13;80.09
78142;BME280;67393;52.620;13.482;2023-12-28T03:25:23;100543.41;;;7.05;81.23
78142;BME280;67393;52.620;13.482;2023-12-28T03:27:49;100541.66;;;7.04;80.46
78142;BME280;67393;52.620;13.482;2023-12-28T03:30:16;100541.63;;;7.05;81.48
78142;BME280;67393;52.620;13.482;2023-12-28T03:32:42;100544.25;;;7.07;79.80
78142;BME280;67393;52.620;13.482;2023-12-28T03:35:09;100548.66;;;7.06;81.36
78142;BME280;67393;52.620;13.482;2023-12-28T03:37:35;100550.41;;;7.07;80.56
78142;BME280;67393;52.620;13.482;2023-12-28T03:40:02;100541.47;;;7.15;79.47
78142;BME280;67393;52.620;13.482;2023-12-28T03:42:28;100546.84;;;7.10;82.66
78142;BME280;67393;52.620;13.482;2023-12-28T03:44:54;100550.50;;;7.01;84.60
78142;BME280;67393;52.620;13.482;2023-12-28T03:47:21;100558.63;;;6.89;86.83
78142;BME280;67393;52.620;13.482;2023-12-28T03:49:47;100563.97;;;6.83;88.48
78142;BME280;67393;52.620;13.482;2023-12-28T03:52:14;100572.03;;;6.72;91.80
78142;BME280;67393;52.620;13.482;2023-12-28T03:54:40;100560.88;;;6.55;95.85
78142;BME280;67393;52.620;13.482;2023-12-28T03:57:07;100559.28;;;6.42;100.00
78142;BME280;67393;52.620;13.482;2023-12-28T03:59:33;100564.72;;;6.31;100.00
78142;BME280;67393;52.620;13.482;2023-12-28T04:01:59;100555.13;;;6.27;100.00
78142;BME280;67393;52.620;13.482;2023-12-28T04:04:26;100559.50;;;6.28;100.00
78142;BME280;67393;52.620;13.482;2023-12-28T04:06:52;100553.34;;;6.27;100.00
78142;BME280;67393;52.620;13.482;2023-12-28T04:09:19;100553.25;;;6.33;100.00
78142;BME280;67393;52.620;13.482;2023-12-28T04:11:45;100556.75;;;6.34;100.00
78142;BME280;67393;52.620;13.482;2023-12-28T04:14:11;100558.56;;;6.32;100.00
78142;BME280;67393;52.620;13.482;2023-12-28T04:16:38;100565.47;;;6.42;100.00
78142;BME280;67393;52.620;13.482;2023-12-28T04:19:04;100573.25;;;6.50;99.27
78142;BME280;67393;52.620;13.482;2023-12-28T04:21:30;100573.91;;;6.66;95.66
78142;BME280;67393;52.620;13.482;2023-12-28T04:23:57;100586.81;;;6.84;92.48
78142;BME280;67393;52.620;13.482;2023-12-28T04:26:23;100577.88;;;6.96;90.98
78142;BME280;67393;52.620;13.482;2023-12-28T04:28:50;100573.19;;;7.13;88.01
78142;BME280;67393;52.620;13.482;2023-12-28T04:31:16;100564.31;;;7.19;89.48
78142;BME280;67393;52.620;13.482;2023-12-28T04:33:42;100568.50;;;7.29;86.70
78142;BME280;67393;52.620;13.482;2023-12-28T04:36:09;100578.94;;;7.38;85.61
78142;BME280;67393;52.620;13.482;2023-12-28T04:38:36;100575.38;;;7.39;86.16
78142;BME280;67393;52.620;13.482;2023-12-28T04:41:03;100567.38;;;7.44;84.45
78142;BME280;67393;52.620;13.482;2023-12-28T04:43:29;100571.69;;;7.48;84.60
78142;BME280;67393;52.620;13.482;2023-12-28T04:45:55;100558.44;;;7.51;83.66
78142;BME280;67393;52.620;13.482;2023-12-28T04:48:22;100556.63;;;7.53;83.95
78142;BME280;67393;52.620;13.482;2023-12-28T04:50:49;100548.56;;;7.61;82.31
78142;BME280;67393;52.620;13.482;2023-12-28T04:53:15;100562.59;;;7.64;81.20
78142;BME280;67393;52.620;13.482;2023-12-28T04:55:42;100563.34;;;7.71;80.66
78142;BME280;67393;52.620;13.482;2023-12-28T04:58:10;100570.31;;;7.76;79.44
78142;BME280;67393;52.620;13.482;2023-12-28T05:00:37;100571.19;;;7.77;79.37
78142;BME280;67393;52.620;13.482;2023-12-28T05:03:04;100574.63;;;7.80;79.37
78142;BME280;67393;52.620;13.482;2023-12-28T05:05:30;100573.75;;;7.80;79.42
78142;BME280;67393;52.620;13.482;2023-12-28T05:07:57;100575.50;;;7.79;78.81
78142;BME280;67393;52.620;13.482;2023-12-28T05:10:24;100591.06;;;7.95;77.30
78142;BME280;67393;52.620;13.482;2023-12-28T05:12:50;100582.22;;;7.97;77.51
78142;BME280;67393;52.620;13.482;2023-12-28T05:15:16;100596.19;;;8.02;76.46
78142;BME280;67393;52.620;13.482;2023-12-28T05:17:43;100597.03;;;8.06;76.98
78142;BME280;67393;52.620;13.482;2023-12-28T05:20:09;100610.22;;;8.07;75.93
78142;BME280;67393;52.620;13.482;2023-12-28T05:22:36;100600.47;;;8.11;76.47
78142;BME280;67393;52.620;13.482;2023-12-28T05:25:02;100606.72;;;8.05;77.58
78142;BME280;67393;52.620;13.482;2023-12-28T05:27:29;100605.84;;;8.05;77.42
78142;BME280;67393;52.620;13.482;2023-12-28T05:29:55;100611.09;;;8.06;76.53
78142;BME280;67393;52.620;13.482;2023-12-28T05:32:22;100605.81;;;8.08;76.43
78142;BME280;67393;52.620;13.482;2023-12-28T05:34:48;100610.28;;;8.04;77.45
78142;BME280;67393;52.620;13.482;2023-12-28T05:37:15;100600.69;;;7.99;77.53
78142;BME280;67393;52.620;13.482;2023-12-28T05:39:41;100621.91;;;7.94;78.51
78142;BME280;67393;52.620;13.482;2023-12-28T05:42:07;100628.97;;;7.94;77.37
78142;BME280;67393;52.620;13.482;2023-12-28T05:44:34;100644.53;;;8.09;75.65
78142;BME280;67393;52.620;13.482;2023-12-28T05:47:01;100636.56;;;8.11;75.95
78142;BME280;67393;52.620;13.482;2023-12-28T05:49:27;100633.97;;;8.09;76.28
78142;BME280;67393;52.620;13.482;2023-12-28T05:51:54;100638.34;;;8.12;76.51
78142;BME280;67393;52.620;13.482;2023-12-28T05:54:20;100649.88;;;8.07;76.96
78142;BME280;67393;52.620;13.482;2023-12-28T05:56:46;100640.13;;;8.10;77.50
78142;BME280;67393;52.620;13.482;2023-12-28T05:59:13;100655.91;;;8.13;77.18
78142;BME280;67393;52.620;13.482;2023-12-28T06:01:43;100653.19;;;8.17;77.24
78142;BME280;67393;52.620;13.482;2023-12-28T06:04:09;100655.00;;;8.14;77.73
78142;BME280;67393;52.620;13.482;2023-12-28T06:06:36;100660.28;;;8.15;78.50
78142;BME280;67393;52.620;13.482;2023-12-28T06:09:02;100657.69;;;8.12;78.87
78142;BME280;67393;52.620;13.482;2023-12-28T06:11:29;100657.41;;;8.27;78.97
78142;BME280;67393;52.620;13.482;2023-12-28T06:13:55;100654.78;;;8.26;78.36
78142;BME280;67393;52.620;13.482;2023-12-28T06:16:21;100663.47;;;8.32;79.42
78142;BME280;67393;52.620;13.482;2023-12-28T06:18:48;100657.34;;;8.29;79.37
78142;BME280;67393;52.620;13.482;2023-12-28T06:21:14;100672.31;;;8.30;80.32
78142;BME280;67393;52.620;13.482;2023-12-28T06:23:41;100662.63;;;8.30;81.10
78142;BME280;67393;52.620;13.482;2023-12-28T06:26:07;100660.97;;;8.25;81.69
78142;BME280;67393;52.620;13.482;2023-12-28T06:28:33;100662.66;;;8.29;82.01
78142;BME280;67393;52.620;13.482;2023-12-28T06:31:00;100659.03;;;8.35;83.10
78142;BME280;67393;52.620;13.482;2023-12-28T06:33:27;100663.41;;;8.37;83.60
78142;BME280;67393;52.620;13.482;2023-12-28T06:35:54;100667.72;;;8.43;83.89
78142;BME280;67393;52.620;13.482;2023-12-28T06:38:20;100657.09;;;8.44;85.24
78142;BME280;67393;52.620;13.482;2023-12-28T06:40:46;100643.75;;;8.49;85.72
78142;BME280;67393;52.620;13.482;2023-12-28T06:43:13;100649.00;;;8.52;86.37
78142;BME280;67393;52.620;13.482;2023-12-28T06:45:39;100659.56;;;8.52;86.72
78142;BME280;67393;52.620;13.482;2023-12-28T06:48:05;100671.03;;;8.52;86.85
78142;BME280;67393;52.620;13.482;2023-12-28T06:50:32;100665.81;;;8.49;87.83
78142;BME280;67393;52.620;13.482;2023-12-28T06:52:58;100665.84;;;8.48;87.50
78142;BME280;67393;52.620;13.482;2023-12-28T06:55:24;100656.13;;;8.48;88.20
78142;BME280;67393;52.620;13.482;2023-12-28T06:57:51;100653.53;;;8.47;87.47
78142;BME280;67393;52.620;13.482;2023-12-28T07:00:17;100659.69;;;8.47;88.33
78142;BME280;67393;52.620;13.482;2023-12-28T07:02:44;100657.91;;;8.48;87.56
78142;BME280;67393;52.620;13.482;2023-12-28T07:05:10;100666.78;;;8.44;88.57
78142;BME280;67393;52.620;13.482;2023-12-28T07:07:37;100673.00;;;8.43;88.96
78142;BME280;67393;52.620;13.482;2023-12-28T07:10:03;100665.03;;;8.44;87.71
78142;BME280;67393;52.620;13.482;2023-12-28T07:12:30;100667.72;;;8.41;88.27
78142;BME280;67393;52.620;13.482;2023-12-28T07:14:56;100668.53;;;8.45;88.34
78142;BME280;67393;52.620;13.482;2023-12-28T07:17:23;100677.44;;;8.41;88.44
78142;BME280;67393;52.620;13.482;2023-12-28T07:19:49;100669.53;;;8.39;88.51
78142;BME280;67393;52.620;13.482;2023-12-28T07:22:16;100678.38;;;8.38;88.58
78142;BME280;67393;52.620;13.482;2023-12-28T07:24:42;100686.28;;;8.40;88.83
78142;BME280;67393;52.620;13.482;2023-12-28T07:27:08;100679.19;;;8.42;88.57
78142;BME280;67393;52.620;13.482;2023-12-28T07:29:35;100685.41;;;8.39;88.70
78142;BME280;67393;52.620;13.482;2023-12-28T07:32:01;100690.66;;;8.41;89.46
78142;BME280;67393;52.620;13.482;2023-12-28T07:34:27;100693.34;;;8.38;89.63
78142;BME280;67393;52.620;13.482;2023-12-28T07:36:54;100690.69;;;8.39;89.00
78142;BME280;67393;52.620;13.482;2023-12-28T07:39:20;100696.00;;;8.36;89.77
78142;BME280;67393;52.620;13.482;2023-12-28T07:41:47;100690.72;;;8.38;89.16
78142;BME280;67393;52.620;13.482;2023-12-28T07:44:13;100695.13;;;8.39;89.37
78142;BME280;67393;52.620;13.482;2023-12-28T07:46:39;100688.91;;;8.40;88.83
78142;BME280;67393;52.620;13.482;2023-12-28T07:49:06;100707.38;;;8.41;88.95
78142;BME280;67393;52.620;13.482;2023-12-28T07:51:32;100709.16;;;8.42;88.98
78142;BME280;67393;52.620;13.482;2023-12-28T07:53:59;100721.50;;;8.42;88.80
78142;BME280;67393;52.620;13.482;2023-12-28T07:56:25;100710.78;;;8.48;88.83
78142;BME280;67393;52.620;13.482;2023-12-28T07:58:52;100718.72;;;8.48;88.30
78142;BME280;67393;52.620;13.482;2023-12-28T08:01:18;100716.94;;;8.48;89.42
78142;BME280;67393;52.620;13.482;2023-12-28T08:03:44;100726.50;;;8.55;88.12
78142;BME280;67393;52.620;13.482;2023-12-28T08:06:11;100731.69;;;8.62;88.50
78142;BME280;67393;52.620;13.482;2023-12-28T08:08:37;100731.69;;;8.62;88.17
78142;BME280;67393;52.620;13.482;2023-12-28T08:11:04;100730.78;;;8.63;89.12
78142;BME280;67393;52.620;13.482;2023-12-28T08:13:30;100729.03;;;8.62;89.50
78142;BME280;67393;52.620;13.482;2023-12-28T08:15:56;100741.31;;;8.66;88.39
78142;BME280;67393;52.620;13.482;2023-12-28T08:18:23;100726.25;;;8.68;88.68
78142;BME280;67393;52.620;13.482;2023-12-28T08:20:49;100733.31;;;8.69;88.46
78142;BME280;67393;52.620;13.482;2023-12-28T08:23:16;100740.31;;;8.71;88.37
78142;BME280;67393;52.620;13.482;2023-12-28T08:25:44;100735.88;;;8.72;88.71
78142;BME280;67393;52.620;13.482;2023-12-28T08:28:11;100756.97;;;8.75;89.13
78142;BME280;67393;52.620;13.482;2023-12-28T08:30:37;100749.03;;;8.75;87.98
78142;BME280;67393;52.620;13.482;2023-12-28T08:33:03;100752.50;;;8.78;88.80
78142;BME280;67393;52.620;13.482;2023-12-28T08:35:30;100745.44;;;8.79;87.72
78142;BME280;67393;52.620;13.482;2023-12-28T08:37:57;100738.38;;;8.79;88.47
78142;BME280;67393;52.620;13.482;2023-12-28T08:40:23;100755.09;;;8.80;88.15
78142;BME280;67393;52.620;13.482;2023-12-28T08:42:50;100756.97;;;8.76;87.82
78142;BME280;67393;52.620;13.482;2023-12-28T08:45:16;100753.38;;;8.79;87.63
78142;BME280;67393;52.620;13.482;2023-12-28T08:47:42;100756.88;;;8.81;87.51
78142;BME280;67393;52.620;13.482;2023-12-28T08:50:09;100758.66;;;8.79;87.20
78142;BME280;67393;52.620;13.482;2023-12-28T08:52:35;100759.53;;;8.81;87.40
78142;BME280;67393;52.620;13.482;2023-12-28T08:55:02;100764.66;;;8.87;86.59
78142;BME280;67393;52.620;13.482;2023-12-28T08:57:29;100763.84;;;8.85;86.31
78142;BME280;67393;52.620;13.482;2023-12-28T09:00:08;100767.16;;;8.95;85.40
78142;BME280;67393;52.620;13.482;2023-12-28T09:02:34;100774.22;;;8.94;85.93
78142;BME280;67393;52.620;13.482;2023-12-28T09:05:01;100783.91;;;8.97;85.18
78142;BME280;67393;52.620;13.482;2023-12-28T09:07:27;100774.94;;;9.04;84.61
78142;BME280;67393;52.620;13.482;2023-12-28T09:09:54;100775.84;;;9.01;84.54
78142;BME280;67393;52.620;13.482;2023-12-28T09:12:20;100777.59;;;9.02;84.47
78142;BME280;67393;52.620;13.482;2023-12-28T09:14:46;100769.75;;;8.98;85.16
78142;BME280;67393;52.620;13.482;2023-12-28T09:17:13;100783.75;;;9.04;84.08
78142;BME280;67393;52.620;13.482;2023-12-28T09:19:39;100771.41;;;9.03;84.80
78142;BME280;67393;52.620;13.482;2023-12-28T09:22:06;100776.72;;;9.02;85.10
78142;BME280;67393;52.620;13.482;2023-12-28T09:24:32;100779.28;;;9.07;84.21
78142;BME280;67393;52.620;13.482;2023-12-28T09:26:59;100766.03;;;9.07;84.93
78142;BME280;67393;52.620;13.482;2023-12-28T09:29:25;100762.50;;;9.06;84.13
78142;BME280;67393;52.620;13.482;2023-12-28T09:31:51;100775.75;;;9.08;84.75
78142;BME280;67393;52.620;13.482;2023-12-28T09:34:18;100765.16;;;9.08;84.52
78142;BME280;67393;52.620;13.482;2023-12-28T09:36:44;100760.72;;;9.08;83.35
78142;BME280;67393;52.620;13.482;2023-12-28T09:39:11;100762.34;;;9.14;83.13
78142;BME280;67393;52.620;13.482;2023-12-28T09:41:40;100760.63;;;9.13;83.42
78142;BME280;67393;52.620;13.482;2023-12-28T09:44:11;100769.41;;;9.15;82.61
78142;BME280;67393;52.620;13.482;2023-12-28T09:46:41;100752.56;;;9.19;82.87
78142;BME280;67393;52.620;13.482;2023-12-28T09:49:08;100747.25;;;9.19;83.36
78142;BME280;67393;52.620;13.482;2023-12-28T09:51:35;100751.50;;;9.26;83.07
78142;BME280;67393;52.620;13.482;2023-12-28T09:54:03;100735.75;;;9.20;83.02
78142;BME280;67393;52.620;13.482;2023-12-28T09:56:31;100738.41;;;9.20;83.54
78142;BME280;67393;52.620;13.482;2023-12-28T09:58:59;100747.38;;;9.13;83.79
78142;BME280;67393;52.620;13.482;2023-12-28T10:01:25;100746.47;;;9.15;83.37
78142;BME280;67393;52.620;13.482;2023-12-28T10:03:52;100743.81;;;9.15;83.06
78142;BME280;67393;52.620;13.482;2023-12-28T10:06:19;100740.25;;;9.16;83.78
78142;BME280;67393;52.620;13.482;2023-12-28T10:08:46;100748.03;;;9.22;83.35
78142;BME280;67393;52.620;13.482;2023-12-28T10:11:16;100751.66;;;9.18;82.62
78142;BME280;67393;52.620;13.482;2023-12-28T10:13:43;100748.03;;;9.24;82.61
78142;BME280;67393;52.620;13.482;2023-12-28T10:16:11;100728.44;;;9.31;83.35
78142;BME280;67393;52.620;13.482;2023-12-28T10:18:44;100727.53;;;9.32;82.30
78142;BME280;67393;52.620;13.482;2023-12-28T10:21:11;100730.91;;;9.39;81.79
78142;BME280;67393;52.620;13.482;2023-12-28T10:23:38;100734.38;;;9.42;82.58
78142;BME280;67393;52.620;13.482;2023-12-28T10:26:05;100731.59;;;9.47;82.54
78142;BME280;67393;52.620;13.482;2023-12-28T10:28:32;100727.13;;;9.49;82.42
78142;BME280;67393;52.620;13.482;2023-12-28T10:30:59;100722.78;;;9.46;81.34
78142;BME280;67393;52.620;13.482;2023-12-28T10:33:26;100739.03;;;9.68;80.99
78142;BME280;67393;52.620;13.482;2023-12-28T10:35:53;100721.09;;;9.79;80.08
78142;BME280;67393;52.620;13.482;2023-12-28T10:38:25;100718.41;;;9.81;80.07
78142;BME280;67393;52.620;13.482;2023-12-28T10:40:54;100734.00;;;9.93;79.63
78142;BME280;67393;52.620;13.482;2023-12-28T10:43:23;100728.03;;;9.84;79.18
78142;BME280;67393;52.620;13.482;2023-12-28T10:45:50;100730.63;;;9.87;78.65
78142;BME280;67393;52.620;13.482;2023-12-28T10:48:24;100722.88;;;10.13;77.47
78142;BME280;67393;52.620;13.482;2023-12-28T10:50:53;100730.09;;;10.08;77.60
78142;BME280;67393;52.620;13.482;2023-12-28T10:56:41;100735.94;;;10.21;77.93
78142;BME280;67393;52.620;13.482;2023-12-28T11:01:49;100737.09;;;10.45;76.22
78142;BME280;67393;52.620;13.482;2023-12-28T11:04:42;100735.66;;;10.64;75.18
78142;BME280;67393;52.620;13.482;2023-12-28T11:07:13;100736.72;;;10.90;73.15
78142;BME280;67393;52.620;13.482;2023-12-28T11:09:44;100731.88;;;11.04;72.71
78142;BME280;67393;52.620;13.482;2023-12-28T11:12:11;100726.66;;;11.29;71.29
78142;BME280;67393;52.620;13.482;2023-12-28T11:14:41;100734.06;;;10.90;72.99
78142;BME280;67393;52.620;13.482;2023-12-28T11:17:11;100731.34;;;10.62;74.68
78142;BME280;67393;52.620;13.482;2023-12-28T11:19:39;100739.09;;;10.68;73.71
78142;BME280;67393;52.620;13.482;2023-12-28T11:22:06;100743.84;;;10.57;74.77
78142;BME280;67393;52.620;13.482;2023-12-28T11:24:33;100741.91;;;10.31;75.53
78142;BME280;67393;52.620;13.482;2023-12-28T11:27:00;100736.13;;;10.13;77.00
78142;BME280;67393;52.620;13.482;2023-12-28T11:29:29;100734.97;;;10.26;77.28
78142;BME280;67393;52.620;13.482;2023-12-28T11:31:58;100718.94;;;10.30;76.40
78142;BME280;67393;52.620;13.482;2023-12-28T11:34:29;100724.63;;;10.48;75.58
78142;BME280;67393;52.620;13.482;2023-12-28T11:36:58;100718.72;;;10.37;75.48
78142;BME280;67393;52.620;13.482;2023-12-28T11:39:34;100727.06;;;10.56;74.75
78142;BME280;67393;52.620;13.482;2023-12-28T11:42:07;100719.06;;;10.89;73.64
78142;BME280;67393;52.620;13.482;2023-12-28T11:44:38;100722.97;;;10.75;73.52
78142;BME280;67393;52.620;13.482;2023-12-28T11:47:12;100716.63;;;11.11;72.17
78142;BME280;67393;52.620;13.482;2023-12-28T11:49:39;100711.34;;;11.93;67.65
78142;BME280;67393;52.620;13.482;2023-12-28T11:52:05;100699.22;;;12.11;66.12
78142;BME280;67393;52.620;13.482;2023-12-28T11:54:32;100683.16;;;12.63;64.42
78142;BME280;67393;52.620;13.482;2023-12-28T11:56:58;100672.59;;;12.83;63.16
78142;BME280;67393;52.620;13.482;2023-12-28T11:59:25;100669.38;;;12.75;63.39
78142;BME280;67393;52.620;13.482;2023-12-28T12:01:52;100669.25;;;12.55;63.51
78142;BME280;67393;52.620;13.482;2023-12-28T12:04:19;100665.91;;;12.25;64.23
78142;BME280;67393;52.620;13.482;2023-12-28T12:06:47;100660.09;;;12.38;63.71
78142;BME280;67393;52.620;13.482;2023-12-28T12:09:14;100672.28;;;12.92;62.34
78142;BME280;67393;52.620;13.482;2023-12-28T12:11:40;100654.00;;;13.05;61.40
78142;BME280;67393;52.620;13.482;2023-12-28T12:14:11;100647.88;;;12.56;62.57
78142;BME280;67393;52.620;13.482;2023-12-28T12:16:38;100653.34;;;12.53;63.17
78142;BME280;67393;52.620;13.482;2023-12-28T12:19:05;100655.72;;;12.61;62.25
78142;BME280;67393;52.620;13.482;2023-12-28T12:21:33;100648.72;;;12.58;62.88
78142;BME280;67393;52.620;13.482;2023-12-28T12:24:00;100639.03;;;12.56;62.39
78142;BME280;67393;52.620;13.482;2023-12-28T12:26:29;100653.91;;;12.85;61.77
78142;BME280;67393;52.620;13.482;2023-12-28T12:28:56;100672.72;;;13.04;60.36
78142;BME280;67393;52.620;13.482;2023-12-28T12:31:24;100658.59;;;12.78;61.48
78142;BME280;67393;52.620;13.482;2023-12-28T12:33:51;100662.25;;;12.76;61.54
78142;BME280;67393;52.620;13.482;2023-12-28T12:36:18;100655.53;;;12.89;60.27
78142;BME280;67393;52.620;13.482;2023-12-28T12:38:44;100659.16;;;13.10;59.78
78142;BME280;67393;52.620;13.482;2023-12-28T12:41:10;100660.22;;;12.82;60.84
78142;BME280;67393;52.620;13.482;2023-12-28T12:43:37;100667.56;;;12.76;61.16
78142;BME280;67393;52.620;13.482;2023-12-28T12:46:04;100651.38;;;12.58;61.21
78142;BME280;67393;52.620;13.482;2023-12-28T12:48:31;100652.94;;;12.64;61.22
78142;BME280;67393;52.620;13.482;2023-12-28T12:50:57;100653.47;;;12.25;62.92